Driftmaster — AEJH — position and weather

sailwx.info

Track history (hours):
 
Tides and Currents Weather Stations Pressure Air Temp Water Temp Dewpoint Dewpoint Depression Visibility Wind Speed Wind Dir Waves Ship Positions

Driftmaster

Last reported at 2018-Apr-26 13:00 UTC. Time now 2018-Apr-26 13:02 UTC.
Position N 40°42' W 074°01'.

Length 30 m; draft 3 m.

MMSI: 366999411.

Date/timePositionNaut miles runAvg speedWind from/ knotsBaromVisibWave heightAir tempDewpointWater temp
2018-Apr-26 13:00N 40°42' W 074°01'2 3.5
2018-Apr-26 12:30N 40°40' W 074°02'2 3.0
2018-Apr-26 12:00N 40°40' W 074°03'2 0.1
2018-Apr-25 19:06N 40°41' W 074°04'0 4.0
2018-Apr-25 19:00N 40°41' W 074°04'0 0.4
2018-Apr-25 18:30N 40°41' W 074°04'0 0.0
2018-Apr-25 18:00N 40°41' W 074°04'1 2.7
2018-Apr-25 17:30N 40°41' W 074°02'4 7.2
2018-Apr-25 17:00N 40°45' W 074°01'0 0.6
2018-Apr-25 16:24N 40°45' W 074°01'0 0.0
2018-Apr-25 15:57N 40°45' W 074°01'0 0.0
2018-Apr-25 15:30N 40°45' W 074°01'0 0.0
2018-Apr-25 14:59N 40°45' W 074°01'1 2.2
2018-Apr-25 14:29N 40°44' W 074°01'1 2.2
2018-Apr-25 14:00N 40°43' W 074°01'1 2.9
2018-Apr-25 13:30N 40°42' W 074°00'0 0.3
2018-Apr-25 13:00N 40°42' W 074°00'2 3.7
2018-Apr-25 12:30N 40°40' W 074°01'1 2.6
2018-Apr-25 12:00N 40°40' W 074°03'1 2.8
2018-Apr-25 11:30N 40°41' W 074°04'0 0.0
2018-Apr-25 11:00N 40°41' W 074°04'0 0.0
2018-Apr-24 19:06N 40°41' W 074°04'0 2.7
2018-Apr-24 19:00N 40°41' W 074°04'0 0.6
2018-Apr-24 18:30N 40°41' W 074°04'0 0.0
2018-Apr-24 18:00N 40°41' W 074°04'1 1.6
2018-Apr-24 17:30N 40°40' W 074°03'3 5.9
2018-Apr-24 17:00N 40°43' W 074°02'1 0.5
2018-Apr-24 15:16N 40°44' W 074°02'1 4.3
2018-Apr-24 15:00N 40°45' W 074°01'1 2.1
2018-Apr-24 14:30N 40°44' W 074°01'1 1.7
2018-Apr-24 14:00N 40°43' W 074°01'1 2.3
2018-Apr-24 13:30N 40°42' W 074°01'1 1.6
2018-Apr-24 13:00N 40°42' W 074°02'1 2.6
2018-Apr-24 12:30N 40°41' W 074°03'1 2.3
2018-Apr-24 12:00N 40°41' W 074°04'0 0.0
2018-Apr-23 19:26N 40°41' W 074°04'0 0.2
2018-Apr-23 19:00N 40°41' W 074°04'0 0.9
2018-Apr-23 18:30N 40°41' W 074°04'0 0.8
2018-Apr-23 18:00N 40°41' W 074°03'1 2.4
2018-Apr-23 17:30N 40°41' W 074°02'2 3.9
2018-Apr-23 17:00N 40°39' W 074°02'0 0.2
2018-Apr-23 16:30N 40°39' W 074°02'0 0.0
2018-Apr-23 16:00N 40°39' W 074°02'0 0.0
2018-Apr-23 15:30N 40°39' W 074°02'0 0.9
2018-Apr-23 15:00N 40°39' W 074°02'0 0.4
2018-Apr-23 14:30N 40°39' W 074°02'1 1.3
2018-Apr-23 13:59N 40°39' W 074°02'2 2.7
2018-Apr-23 13:17N 40°37' W 074°02'2 6.0
2018-Apr-23 13:00N 40°38' W 074°03'3 5.4
2018-Apr-23 12:30N 40°41' W 074°04'0 0.0
2018-Apr-22 18:58N 40°41' W 074°04'0 0.0
2018-Apr-22 18:31N 40°41' W 074°04'1 3.0
2018-Apr-22 18:00N 40°41' W 074°02'0 0.9
2018-Apr-22 17:30N 40°41' W 074°02'2 4.3
2018-Apr-22 17:00N 40°43' W 074°02'1 0.9
2018-Apr-22 16:11N 40°44' W 074°02'0 0.0
2018-Apr-22 15:56N 40°44' W 074°02'0 0.0
2018-Apr-22 15:22N 40°44' W 074°02'0 0.1
2018-Apr-22 15:00N 40°44' W 074°02'1 1.9
2018-Apr-22 14:31N 40°43' W 074°02'1 2.1
2018-Apr-22 14:00N 40°42' W 074°02'1 1.7
2018-Apr-22 13:30N 40°41' W 074°02'1 1.4
2018-Apr-22 13:00N 40°41' W 074°02'1 2.3
2018-Apr-22 12:30N 40°41' W 074°04'1 1.1
2018-Apr-22 12:00N 40°41' W 074°04'0 0.0
2018-Apr-21 18:34N 40°41' W 074°04'0 0.1
2018-Apr-21 18:30N 40°41' W 074°04'1 2.9
2018-Apr-21 18:00N 40°40' W 074°03'2 3.4
2018-Apr-21 17:30N 40°42' W 074°02'2 3.3
2018-Apr-21 17:00N 40°43' W 074°01'1 2.2
2018-Apr-21 16:30N 40°44' W 074°02'0 0.0
2018-Apr-21 16:00N 40°44' W 074°02'1 1.9
2018-Apr-21 15:30N 40°45' W 074°01'2 3.1
2018-Apr-21 15:00N 40°43' W 074°01'1 3.0
2018-Apr-21 14:30N 40°42' W 074°01'1 1.4
2018-Apr-21 14:00N 40°42' W 074°00'3 5.2
2018-Apr-21 13:30N 40°39' W 074°01'2 4.5
2018-Apr-21 13:00N 40°37' W 074°03'2 4.1
2018-Apr-21 12:30N 40°39' W 074°04'2 3.5
2018-Apr-21 12:00N 40°41' W 074°04'0 0.0
2018-Apr-20 19:16N 40°41' W 074°04'1 2.8
2018-Apr-20 19:00N 40°41' W 074°04'0 0.4
2018-Apr-20 18:30N 40°41' W 074°04'2 3.7
2018-Apr-20 18:00N 40°42' W 074°02'2 3.7
2018-Apr-20 17:30N 40°44' W 074°01'1 1.0
2018-Apr-20 16:59N 40°44' W 074°02'0 0.0
2018-Apr-20 16:30N 40°44' W 074°02'0 0.0
2018-Apr-20 16:00N 40°44' W 074°02'0 0.0
2018-Apr-20 15:30N 40°44' W 074°02'2 3.5
2018-Apr-20 15:00N 40°42' W 074°02'1 2.2
2018-Apr-20 14:30N 40°42' W 074°00'1 2.0
2018-Apr-20 14:00N 40°41' W 074°01'1 2.4
2018-Apr-20 13:30N 40°40' W 074°01'2 4.1
2018-Apr-20 13:00N 40°38' W 074°03'0 0.3
2018-Apr-20 12:30N 40°38' W 074°03'3 5.2
2018-Apr-20 12:00N 40°41' W 074°04'1 0.0
2018-Apr-19 19:04N 40°41' W 074°04'0 0.0
2018-Apr-19 19:00N 40°41' W 074°04'1 2.9
2018-Apr-19 18:30N 40°41' W 074°02'2 4.0
2018-Apr-19 18:00N 40°43' W 074°01'2 3.3
2018-Apr-19 17:30N 40°44' W 074°01'1 2.6
2018-Apr-19 17:00N 40°46' W 074°01'2 3.0
2018-Apr-19 16:30N 40°44' W 074°02'0 0.0
2018-Apr-19 16:00N 40°44' W 074°02'0 0.0
2018-Apr-19 15:30N 40°44' W 074°02'0 0.4
2018-Apr-19 14:59N 40°44' W 074°01'2 4.9
2018-Apr-19 14:30N 40°42' W 074°02'2 4.7
2018-Apr-19 14:00N 40°39' W 074°02'2 4.4
2018-Apr-19 13:30N 40°37' W 074°03'1 2.7
2018-Apr-19 13:00N 40°39' W 074°03'2 4.0
2018-Apr-19 12:30N 40°41' W 074°04'1 1.5
2018-Apr-19 12:00N 40°41' W 074°04'0 0.0
2018-Apr-18 15:04N 40°41' W 074°04'0 0.4
2018-Apr-18 15:00N 40°41' W 074°04'2 3.2
2018-Apr-18 14:30N 40°41' W 074°02'2 3.3
2018-Apr-18 14:00N 40°39' W 074°03'1 2.8
2018-Apr-18 13:30N 40°40' W 074°04'1 1.8
2018-Apr-18 13:00N 40°41' W 074°04'0 0.0
2018-Apr-18 12:30N 40°41' W 074°04'0 0.0
2018-Apr-18 12:00N 40°41' W 074°04'0 0.0
2018-Apr-17 19:01N 40°41' W 074°04'0 0.0
2018-Apr-17 19:00N 40°41' W 074°04'1 1.2
2018-Apr-17 18:00N 40°41' W 074°03'1 2.1
2018-Apr-17 17:30N 40°41' W 074°02'2 4.8
2018-Apr-17 17:00N 40°44' W 074°01'2 3.3
2018-Apr-17 16:30N 40°45' W 074°01'1 2.5
2018-Apr-17 16:00N 40°44' W 074°02'0 0.0
2018-Apr-17 15:30N 40°44' W 074°02'0 0.4
2018-Apr-17 15:00N 40°44' W 074°01'2 3.9
2018-Apr-17 14:30N 40°42' W 074°01'2 3.4
2018-Apr-17 14:00N 40°40' W 074°02'2 3.8
2018-Apr-17 13:30N 40°39' W 074°02'2 4.0
2018-Apr-17 13:00N 40°37' W 074°02'2 3.2
2018-Apr-17 12:30N 40°38' W 074°03'2 4.6
2018-Apr-17 12:00N 40°40' W 074°03'1 0.1
2018-Apr-16 16:56N 40°41' W 074°02'1 2.2
2018-Apr-16 16:30N 40°42' W 074°02'2 3.9
2018-Apr-16 15:58N 40°44' W 074°02'0 0.0
2018-Apr-16 15:30N 40°44' W 074°02'0 0.6
2018-Apr-16 15:00N 40°44' W 074°01'0 0.9
2018-Apr-16 14:30N 40°44' W 074°01'1 1.5
2018-Apr-16 14:00N 40°45' W 074°01'1 1.3
2018-Apr-16 13:30N 40°46' W 074°01'3 5.9
2018-Apr-16 13:00N 40°43' W 074°01'  
Track history (hours):
 
Tides and Currents Weather Stations Pressure Air Temp Water Temp Dewpoint Dewpoint Depression Visibility Wind Speed Wind Dir Waves Ship Positions

Driftmaster

Last reported at 2018-Apr-26 13:00 UTC. Time now 2018-Apr-26 13:02 UTC.
Position N 40°42' W 074°01'.

Length 30 m; draft 3 m.

MMSI: 366999411.

Date/timePositionNaut miles runAvg speedWind from/ knotsBaromVisibWave heightAir tempDewpointWater temp
2018-Apr-26 13:00N 40°42' W 074°01'2 3.5
2018-Apr-26 12:30N 40°40' W 074°02'2 3.0
2018-Apr-26 12:00N 40°40' W 074°03'2 0.1
2018-Apr-25 19:06N 40°41' W 074°04'0 4.0
2018-Apr-25 19:00N 40°41' W 074°04'0 0.4
2018-Apr-25 18:30N 40°41' W 074°04'0 0.0
2018-Apr-25 18:00N 40°41' W 074°04'1 2.7
2018-Apr-25 17:30N 40°41' W 074°02'4 7.2
2018-Apr-25 17:00N 40°45' W 074°01'0 0.6
2018-Apr-25 16:24N 40°45' W 074°01'0 0.0
2018-Apr-25 15:57N 40°45' W 074°01'0 0.0
2018-Apr-25 15:30N 40°45' W 074°01'0 0.0
2018-Apr-25 14:59N 40°45' W 074°01'1 2.2
2018-Apr-25 14:29N 40°44' W 074°01'1 2.2
2018-Apr-25 14:00N 40°43' W 074°01'1 2.9
2018-Apr-25 13:30N 40°42' W 074°00'0 0.3
2018-Apr-25 13:00N 40°42' W 074°00'2 3.7
2018-Apr-25 12:30N 40°40' W 074°01'1 2.6
2018-Apr-25 12:00N 40°40' W 074°03'1 2.8
2018-Apr-25 11:30N 40°41' W 074°04'0 0.0
2018-Apr-25 11:00N 40°41' W 074°04'0 0.0
2018-Apr-24 19:06N 40°41' W 074°04'0 2.7
2018-Apr-24 19:00N 40°41' W 074°04'0 0.6
2018-Apr-24 18:30N 40°41' W 074°04'0 0.0
2018-Apr-24 18:00N 40°41' W 074°04'1 1.6
2018-Apr-24 17:30N 40°40' W 074°03'3 5.9
2018-Apr-24 17:00N 40°43' W 074°02'1 0.5
2018-Apr-24 15:16N 40°44' W 074°02'1 4.3
2018-Apr-24 15:00N 40°45' W 074°01'1 2.1
2018-Apr-24 14:30N 40°44' W 074°01'1 1.7
2018-Apr-24 14:00N 40°43' W 074°01'1 2.3
2018-Apr-24 13:30N 40°42' W 074°01'1 1.6
2018-Apr-24 13:00N 40°42' W 074°02'1 2.6
2018-Apr-24 12:30N 40°41' W 074°03'1 2.3
2018-Apr-24 12:00N 40°41' W 074°04'0 0.0
2018-Apr-23 19:26N 40°41' W 074°04'0 0.2
2018-Apr-23 19:00N 40°41' W 074°04'0 0.9
2018-Apr-23 18:30N 40°41' W 074°04'0 0.8
2018-Apr-23 18:00N 40°41' W 074°03'1 2.4
2018-Apr-23 17:30N 40°41' W 074°02'2 3.9
2018-Apr-23 17:00N 40°39' W 074°02'0 0.2
2018-Apr-23 16:30N 40°39' W 074°02'0 0.0
2018-Apr-23 16:00N 40°39' W 074°02'0 0.0
2018-Apr-23 15:30N 40°39' W 074°02'0 0.9
2018-Apr-23 15:00N 40°39' W 074°02'0 0.4
2018-Apr-23 14:30N 40°39' W 074°02'1 1.3
2018-Apr-23 13:59N 40°39' W 074°02'2 2.7
2018-Apr-23 13:17N 40°37' W 074°02'2 6.0
2018-Apr-23 13:00N 40°38' W 074°03'3 5.4
2018-Apr-23 12:30N 40°41' W 074°04'0 0.0
2018-Apr-22 18:58N 40°41' W 074°04'0 0.0
2018-Apr-22 18:31N 40°41' W 074°04'1 3.0
2018-Apr-22 18:00N 40°41' W 074°02'0 0.9
2018-Apr-22 17:30N 40°41' W 074°02'2 4.3
2018-Apr-22 17:00N 40°43' W 074°02'1 0.9
2018-Apr-22 16:11N 40°44' W 074°02'0 0.0
2018-Apr-22 15:56N 40°44' W 074°02'0 0.0
2018-Apr-22 15:22N 40°44' W 074°02'0 0.1
2018-Apr-22 15:00N 40°44' W 074°02'1 1.9
2018-Apr-22 14:31N 40°43' W 074°02'1 2.1
2018-Apr-22 14:00N 40°42' W 074°02'1 1.7
2018-Apr-22 13:30N 40°41' W 074°02'1 1.4
2018-Apr-22 13:00N 40°41' W 074°02'1 2.3
2018-Apr-22 12:30N 40°41' W 074°04'1 1.1
2018-Apr-22 12:00N 40°41' W 074°04'0 0.0
2018-Apr-21 18:34N 40°41' W 074°04'0 0.1
2018-Apr-21 18:30N 40°41' W 074°04'1 2.9
2018-Apr-21 18:00N 40°40' W 074°03'2 3.4
2018-Apr-21 17:30N 40°42' W 074°02'2 3.3
2018-Apr-21 17:00N 40°43' W 074°01'1 2.2
2018-Apr-21 16:30N 40°44' W 074°02'0 0.0
2018-Apr-21 16:00N 40°44' W 074°02'1 1.9
2018-Apr-21 15:30N 40°45' W 074°01'2 3.1
2018-Apr-21 15:00N 40°43' W 074°01'1 3.0
2018-Apr-21 14:30N 40°42' W 074°01'1 1.4
2018-Apr-21 14:00N 40°42' W 074°00'3 5.2
2018-Apr-21 13:30N 40°39' W 074°01'2 4.5
2018-Apr-21 13:00N 40°37' W 074°03'2 4.1
2018-Apr-21 12:30N 40°39' W 074°04'2 3.5
2018-Apr-21 12:00N 40°41' W 074°04'0 0.0
2018-Apr-20 19:16N 40°41' W 074°04'1 2.8
2018-Apr-20 19:00N 40°41' W 074°04'0 0.4
2018-Apr-20 18:30N 40°41' W 074°04'2 3.7
2018-Apr-20 18:00N 40°42' W 074°02'2 3.7
2018-Apr-20 17:30N 40°44' W 074°01'1 1.0
2018-Apr-20 16:59N 40°44' W 074°02'0 0.0
2018-Apr-20 16:30N 40°44' W 074°02'0 0.0
2018-Apr-20 16:00N 40°44' W 074°02'0 0.0
2018-Apr-20 15:30N 40°44' W 074°02'2 3.5
2018-Apr-20 15:00N 40°42' W 074°02'1 2.2
2018-Apr-20 14:30N 40°42' W 074°00'1 2.0
2018-Apr-20 14:00N 40°41' W 074°01'1 2.4
2018-Apr-20 13:30N 40°40' W 074°01'2 4.1
2018-Apr-20 13:00N 40°38' W 074°03'0 0.3
2018-Apr-20 12:30N 40°38' W 074°03'3 5.2
2018-Apr-20 12:00N 40°41' W 074°04'1 0.0
2018-Apr-19 19:04N 40°41' W 074°04'0 0.0
2018-Apr-19 19:00N 40°41' W 074°04'1 2.9
2018-Apr-19 18:30N 40°41' W 074°02'2 4.0
2018-Apr-19 18:00N 40°43' W 074°01'2 3.3
2018-Apr-19 17:30N 40°44' W 074°01'1 2.6
2018-Apr-19 17:00N 40°46' W 074°01'2 3.0
2018-Apr-19 16:30N 40°44' W 074°02'0 0.0
2018-Apr-19 16:00N 40°44' W 074°02'0 0.0
2018-Apr-19 15:30N 40°44' W 074°02'0 0.4
2018-Apr-19 14:59N 40°44' W 074°01'2 4.9
2018-Apr-19 14:30N 40°42' W 074°02'2 4.7
2018-Apr-19 14:00N 40°39' W 074°02'2 4.4
2018-Apr-19 13:30N 40°37' W 074°03'1 2.7
2018-Apr-19 13:00N 40°39' W 074°03'2 4.0
2018-Apr-19 12:30N 40°41' W 074°04'1 1.5
2018-Apr-19 12:00N 40°41' W 074°04'0 0.0
2018-Apr-18 15:04N 40°41' W 074°04'0 0.4
2018-Apr-18 15:00N 40°41' W 074°04'2 3.2
2018-Apr-18 14:30N 40°41' W 074°02'2 3.3
2018-Apr-18 14:00N 40°39' W 074°03'1 2.8
2018-Apr-18 13:30N 40°40' W 074°04'1 1.8
2018-Apr-18 13:00N 40°41' W 074°04'0 0.0
2018-Apr-18 12:30N 40°41' W 074°04'0 0.0
2018-Apr-18 12:00N 40°41' W 074°04'0 0.0
2018-Apr-17 19:01N 40°41' W 074°04'0 0.0
2018-Apr-17 19:00N 40°41' W 074°04'1 1.2
2018-Apr-17 18:00N 40°41' W 074°03'1 2.1
2018-Apr-17 17:30N 40°41' W 074°02'2 4.8
2018-Apr-17 17:00N 40°44' W 074°01'2 3.3
2018-Apr-17 16:30N 40°45' W 074°01'1 2.5
2018-Apr-17 16:00N 40°44' W 074°02'0 0.0
2018-Apr-17 15:30N 40°44' W 074°02'0 0.4
2018-Apr-17 15:00N 40°44' W 074°01'2 3.9
2018-Apr-17 14:30N 40°42' W 074°01'2 3.4
2018-Apr-17 14:00N 40°40' W 074°02'2 3.8
2018-Apr-17 13:30N 40°39' W 074°02'2 4.0
2018-Apr-17 13:00N 40°37' W 074°02'2 3.2
2018-Apr-17 12:30N 40°38' W 074°03'2 4.6
2018-Apr-17 12:00N 40°40' W 074°03'1 0.1
2018-Apr-16 16:56N 40°41' W 074°02'1 2.2
2018-Apr-16 16:30N 40°42' W 074°02'2 3.9
2018-Apr-16 15:58N 40°44' W 074°02'0 0.0
2018-Apr-16 15:30N 40°44' W 074°02'0 0.6
2018-Apr-16 15:00N 40°44' W 074°01'0 0.9
2018-Apr-16 14:30N 40°44' W 074°01'1 1.5
2018-Apr-16 14:00N 40°45' W 074°01'1 1.3
2018-Apr-16 13:30N 40°46' W 074°01'3 5.9
2018-Apr-16 13:00N 40°43' W 074°01'  

Dump ship's entire track history